createdAt,value
2022-09-12T00:01:46.499Z,98415.63
2022-09-12T00:06:48.461Z,98411.72
2022-09-12T00:11:50.331Z,98412.47
2022-09-12T00:16:52.536Z,98410.13
2022-09-12T00:21:55.034Z,98408.59
2022-09-12T00:26:56.874Z,98411.72
2022-09-12T00:31:58.711Z,98408.59
2022-09-12T00:37:00.527Z,98411.31
2022-09-12T00:42:02.693Z,98403.13
2022-09-12T00:47:11.542Z,98396.09
2022-09-12T00:52:27.058Z,98396.88
2022-09-12T00:57:52.598Z,98388.25
2022-09-12T01:03:01.252Z,98385.91
2022-09-12T01:08:04.685Z,98381.22
2022-09-12T01:13:09.264Z,98385.13
2022-09-12T01:18:16.632Z,98382.00
2022-09-12T01:23:29.659Z,98383.97
2022-09-12T01:29:16.086Z,98390.63
2022-09-12T01:34:26.463Z,98389.84
2022-09-12T01:39:40.357Z,98385.91
2022-09-12T01:44:57.494Z,98385.16
2022-09-12T01:50:14.008Z,98374.97
2022-09-12T01:55:49.946Z,98375.75
2022-09-12T02:01:23.375Z,98368.72
2022-09-12T02:06:52.394Z,98366.38
2022-09-12T02:11:58.480Z,98357.78
2022-09-12T02:17:12.210Z,98363.25
2022-09-12T02:22:18.254Z,98361.66
2022-09-12T02:27:30.636Z,98356.22
2022-09-12T02:33:01.510Z,98356.97
2022-09-12T02:38:03.258Z,98362.44
2022-09-12T02:43:06.437Z,98353.06
2022-09-12T02:48:21.025Z,98356.56
2022-09-12T02:53:23.365Z,98353.06
2022-09-12T02:58:29.388Z,98355.00
2022-09-12T03:03:43.661Z,98353.44
2022-09-12T03:08:56.969Z,98364.00
2022-09-12T03:14:07.554Z,98358.50
2022-09-12T03:19:34.435Z,98367.50
2022-09-12T03:24:43.352Z,98356.16
2022-09-12T03:29:48.029Z,98350.69
2022-09-12T03:34:49.895Z,98362.78
2022-09-12T03:39:51.753Z,98363.19
2022-09-12T03:44:53.589Z,98363.97
2022-09-12T03:49:55.408Z,98363.97
2022-09-12T03:54:57.238Z,98367.09
2022-09-12T03:59:59.102Z,98375.28
2022-09-12T04:05:01.099Z,98373.34
2022-09-12T04:10:03.606Z,98360.78
2022-09-12T04:15:07.608Z,98360.03
2022-09-12T04:20:09.652Z,98368.97
2022-09-12T04:25:13.277Z,98372.50
2022-09-12T04:30:15.141Z,98373.28
2022-09-12T04:35:17.157Z,98369.00
2022-09-12T04:40:19.393Z,98370.19
2022-09-12T04:45:21.204Z,98367.03
2022-09-12T04:50:23.014Z,98372.50
2022-09-12T04:55:25.436Z,98370.19
2022-09-12T05:00:27.725Z,98371.00
2022-09-12T05:05:29.532Z,98373.28
2022-09-12T05:10:31.389Z,98383.88
2022-09-12T05:15:33.426Z,98379.59
2022-09-12T05:20:35.280Z,98381.56
2022-09-12T05:25:37.253Z,98381.97
2022-09-12T05:30:39.128Z,98392.13
2022-09-12T05:35:41.792Z,98389.81
2022-09-12T05:40:43.774Z,98399.97
2022-09-12T05:45:45.621Z,98402.72
2022-09-12T05:50:47.534Z,98409.00
2022-09-12T05:55:49.435Z,98410.94
2022-09-12T06:00:51.241Z,98410.16
2022-09-12T06:05:53.043Z,98408.59
2022-09-12T06:11:02.271Z,98403.16
2022-09-12T06:16:06.367Z,98406.28
2022-09-12T06:21:13.134Z,98409.78
2022-09-12T06:26:17.160Z,98409.41
2022-09-12T06:31:21.460Z,98416.44
2022-09-12T06:36:28.944Z,98413.31
2022-09-12T06:41:32.052Z,98404.69
2022-09-12T06:46:33.938Z,98423.50
2022-09-12T06:51:38.704Z,98418.03
2022-09-12T06:56:40.882Z,98422.69
2022-09-12T07:01:42.775Z,98432.91
2022-09-12T07:06:44.974Z,98425.81
2022-09-12T07:11:47.378Z,98430.53
2022-09-12T07:16:49.210Z,98434.44
2022-09-12T07:21:54.227Z,98444.59
2022-09-12T07:27:00.329Z,98441.81
2022-09-12T07:32:02.498Z,98445.72
2022-09-12T07:37:04.682Z,98446.13
2022-09-12T07:42:08.054Z,98450.78
2022-09-12T07:47:11.950Z,98446.06
2022-09-12T07:52:13.752Z,98446.00
2022-09-12T07:57:15.857Z,98440.91
2022-09-12T08:02:17.893Z,98447.53
2022-09-12T08:07:20.177Z,98449.34
2022-09-12T08:12:21.994Z,98452.63
2022-09-12T08:17:23.823Z,98455.25
2022-09-12T08:22:25.990Z,98455.50
2022-09-12T08:27:27.790Z,98457.06
2022-09-12T08:32:29.657Z,98447.63
2022-09-12T08:37:32.097Z,98453.16
2022-09-12T08:43:10.291Z,98447.47
2022-09-12T08:48:14.198Z,98448.44
2022-09-12T08:53:24.554Z,98452.25
2022-09-12T08:58:29.293Z,98450.75
2022-09-12T09:03:37.237Z,98456.00
2022-09-12T09:08:50.770Z,98457.50
2022-09-12T09:14:45.528Z,98450.13
2022-09-12T09:19:59.939Z,98449.69
2022-09-12T09:25:08.420Z,98445.09
2022-09-12T09:30:21.713Z,98440.72
2022-09-12T09:35:43.724Z,98431.84
2022-09-12T09:40:57.372Z,98438.41
2022-09-12T09:46:00.573Z,98436.66
2022-09-12T09:51:07.183Z,98427.16
2022-09-12T09:56:33.268Z,98428.56
2022-09-12T10:01:35.308Z,98436.63
2022-09-12T10:06:38.163Z,98420.84
2022-09-12T10:11:45.169Z,98428.13
2022-09-12T10:16:54.780Z,98414.63
2022-09-12T10:21:57.204Z,98419.09
2022-09-12T10:27:21.088Z,98416.16
2022-09-12T10:32:44.009Z,98413.53
2022-09-12T10:37:58.627Z,98414.69
2022-09-12T10:43:02.736Z,98421.19
2022-09-12T10:48:26.460Z,98414.53
2022-09-12T10:53:48.596Z,98399.53
2022-09-12T10:59:08.821Z,98396.28
2022-09-12T11:04:36.332Z,98376.66
2022-09-12T11:09:48.331Z,98386.34
2022-09-12T11:15:03.426Z,98383.16
2022-09-12T11:20:33.270Z,98386.00
2022-09-12T11:25:39.303Z,98389.47
2022-09-12T11:31:00.248Z,98375.19
2022-09-12T11:36:08.897Z,98376.84
2022-09-12T11:41:20.496Z,98381.34
2022-09-12T11:46:34.626Z,98386.34
2022-09-12T11:51:55.353Z,98385.84
2022-09-12T11:57:16.853Z,98379.53
2022-09-12T12:02:30.244Z,98380.66
2022-09-12T12:07:45.408Z,98389.47
2022-09-12T12:12:48.710Z,98392.56
2022-09-12T12:18:24.508Z,98371.66
2022-09-12T12:23:31.404Z,98369.75
2022-09-12T12:28:42.052Z,98358.50
2022-09-12T12:33:44.015Z,98362.25
2022-09-12T12:38:45.974Z,98362.72
2022-09-12T12:43:53.204Z,98348.75
2022-09-12T12:49:28.863Z,98350.84
2022-09-12T12:54:41.182Z,98356.63
2022-09-12T12:59:56.260Z,98348.47
2022-09-12T13:05:02.494Z,98338.53
2022-09-12T13:10:07.489Z,98330.75
2022-09-12T13:15:37.819Z,98320.69
2022-09-12T13:20:52.377Z,98318.22
2022-09-12T13:25:57.661Z,98317.53
2022-09-12T13:31:24.600Z,98311.78
2022-09-12T13:36:51.338Z,98312.41
2022-09-12T13:42:00.819Z,98313.63
2022-09-12T13:47:03.979Z,98303.31
2022-09-12T13:52:17.423Z,98299.03
2022-09-12T13:57:37.730Z,98298.94
2022-09-12T14:02:40.293Z,98296.50
2022-09-12T14:07:54.545Z,98299.38
2022-09-12T14:12:57.592Z,98303.31
2022-09-12T14:18:01.859Z,98297.88
2022-09-12T14:23:16.508Z,98290.13
2022-09-12T14:28:23.399Z,98290.91
2022-09-12T14:33:26.253Z,98287.56
2022-09-12T14:38:44.909Z,98280.59
2022-09-12T14:43:51.288Z,98283.91
2022-09-12T14:49:00.215Z,98270.94
2022-09-12T14:54:02.821Z,98279.22
2022-09-12T14:59:35.474Z,98263.16
2022-09-12T15:04:45.362Z,98273.44
2022-09-12T15:09:47.482Z,98273.66
2022-09-12T15:14:49.341Z,98264.28
2022-09-12T15:19:51.132Z,98269.69
2022-09-12T15:24:53.426Z,98266.25
2022-09-12T15:29:55.595Z,98271.09
2022-09-12T15:34:57.426Z,98265.75
2022-09-12T15:39:59.273Z,98263.41
2022-09-12T15:45:02.785Z,98258.69
2022-09-12T15:50:05.618Z,98255.91
2022-09-12T15:55:16.483Z,98251.69
2022-09-12T16:00:18.954Z,98258.63
2022-09-12T16:05:24.443Z,98263.91
2022-09-12T16:10:29.764Z,98257.34
2022-09-12T16:15:31.584Z,98260.19
2022-09-12T16:20:33.391Z,98252.78
2022-09-12T16:25:35.280Z,98251.31
2022-09-12T16:30:37.391Z,98249.50
2022-09-12T16:35:39.274Z,98245.78
2022-09-12T16:40:41.109Z,98244.38
2022-09-12T16:45:46.967Z,98221.41
2022-09-12T16:50:57.161Z,98221.69
2022-09-12T16:55:59.285Z,98217.28
2022-09-12T17:01:03.674Z,98209.03
2022-09-12T17:06:11.355Z,98211.25
2022-09-12T17:11:15.902Z,98211.06
2022-09-12T17:16:17.889Z,98211.19
2022-09-12T17:21:21.288Z,98202.81
2022-09-12T17:26:23.276Z,98209.41
2022-09-12T17:31:25.311Z,98212.81
2022-09-12T17:36:28.824Z,98204.34
2022-09-12T17:41:32.348Z,98198.13
2022-09-12T17:46:37.240Z,98200.50
2022-09-12T17:51:40.126Z,98203.44
2022-09-12T17:56:43.239Z,98209.44
2022-09-12T18:02:03.987Z,98204.03
2022-09-12T18:07:06.371Z,98205.81
2022-09-12T18:12:09.176Z,98203.53
2022-09-12T18:17:11.948Z,98204.34
2022-09-12T18:22:13.928Z,98212.41
2022-09-12T18:27:16.349Z,98206.19
2022-09-12T18:32:18.388Z,98208.56
2022-09-12T18:37:20.306Z,98205.59
2022-09-12T18:42:22.657Z,98204.16
2022-09-12T18:47:24.531Z,98206.63
2022-09-12T18:52:26.453Z,98205.91
2022-09-12T18:57:30.878Z,98207.66
2022-09-12T19:02:32.825Z,98209.50
2022-09-12T19:07:35.036Z,98204.34
2022-09-12T19:12:36.980Z,98199.06
2022-09-12T19:17:38.930Z,98199.13
2022-09-12T19:22:41.029Z,98206.25
2022-09-12T19:27:43.036Z,98197.28
2022-09-12T19:32:45.241Z,98195.03
2022-09-12T19:37:47.240Z,98192.06
2022-09-12T19:42:49.187Z,98188.72
2022-09-12T19:47:51.195Z,98184.94
2022-09-12T19:52:53.434Z,98181.59
2022-09-12T19:57:55.524Z,98183.28
2022-09-12T20:02:57.560Z,98171.63
2022-09-12T20:08:00.280Z,98168.19
2022-09-12T20:13:02.510Z,98165.16
2022-09-12T20:18:04.412Z,98175.00
2022-09-12T20:23:06.628Z,98177.09
2022-09-12T20:28:08.490Z,98183.56
2022-09-12T20:33:10.304Z,98176.16
2022-09-12T20:38:12.483Z,98171.94
2022-09-12T20:43:14.339Z,98166.53
2022-09-12T20:48:16.158Z,98161.91
2022-09-12T20:53:18.069Z,98164.34
2022-09-12T20:58:21.509Z,98143.25
2022-09-12T21:03:23.420Z,98151.56
2022-09-12T21:08:25.267Z,98153.59
2022-09-12T21:13:27.133Z,98143.44
2022-09-12T21:18:29.578Z,98139.56
2022-09-12T21:23:32.170Z,98129.03
2022-09-12T21:28:34.393Z,98137.25
2022-09-12T21:33:36.636Z,98130.25
2022-09-12T21:38:38.516Z,98126.38
2022-09-12T21:43:41.075Z,98130.31
2022-09-12T21:48:43.529Z,98120.97
2022-09-12T21:53:45.820Z,98126.47
2022-09-12T21:58:47.659Z,98110.06
2022-09-12T22:03:50.228Z,98107.75
2022-09-12T22:08:52.022Z,98105.44
2022-09-12T22:13:53.899Z,98098.44
2022-09-12T22:18:56.255Z,98085.22
2022-09-12T22:24:16.679Z,98081.34
2022-09-12T22:29:18.869Z,98081.03
2022-09-12T22:34:20.778Z,98084.97
2022-09-12T22:39:23.520Z,98065.84
2022-09-12T22:44:25.338Z,98076.84
2022-09-12T22:49:27.134Z,98064.38
2022-09-12T22:54:28.895Z,98047.59
2022-09-12T22:59:31.053Z,98041.72
2022-09-12T23:04:33.089Z,98031.56
2022-09-12T23:09:35.628Z,98032.75
2022-09-12T23:14:37.564Z,98024.19
2022-09-12T23:19:39.426Z,98022.22
2022-09-12T23:24:41.211Z,98028.50
2022-09-12T23:29:43.052Z,98020.69
2022-09-12T23:34:46.506Z,98024.25
2022-09-12T23:39:49.784Z,98016.09
2022-09-12T23:44:51.665Z,98009.00
2022-09-12T23:49:53.462Z,97996.47
2022-09-12T23:54:55.242Z,97999.63
2022-09-12T23:59:57.285Z,97991.81
